AirNav   BOSE A20 Aviation Headset
 
 621 users online  

68IS Casa de Aero Park Airport
Hampshire, Illinois, USA

GOING TO HAMPSHIRE?


FAA INFORMATION EFFECTIVE 24 MAY 2018

Location

FAA Identifier: 68IS
Lat/Long: 42-08-54.9590N / 088-33-43.0095W
42-08.915983N / 088-33.716825W
42.1485997 / -88.5619471
(estimated)
Elevation: 860 ft. / 262 m (estimated)
Variation: 02W (2005)
From city: 3 miles NW of HAMPSHIRE, IL
Time zone: UTC -5 (UTC -6 during Standard Time)
Zip code: 60140

Airport Operations

Airport use: Private use. Permission required prior to landing
Activation date: 05/1971
Control tower: no
ARTCC: CHICAGO CENTER
FSS: KANKAKEE FLIGHT SERVICE STATION
NOTAMs facility: FDC (NOTAM-D service not available)
Attendance: MON-FRI 24 HOURS/DAY
Wind indicator: yes
Segmented circle: yes
Lights: 24 HRS

Airport Communications

WX AWOS-3 at DKB (14 nm SW): 119.075 (815-748-2350)

Nearby radio navigation aids

VOR radial/distance  VOR name  Freq  Var
DPAr327/18.1DUPAGE VOR/DME108.4002E
OBKr263/27.5NORTHBROOK VOR/DME113.0002W
RFDr098/28.7ROCKFORD VOR/DME110.8001E
ORDr286/30.8CHICAGO O'HARE VOR/DME113.9002E
JVLr133/34.4JANESVILLE VOR/DME114.3003E
BUUr201/34.4BURBUN VOR/DME114.5001W
JOTr341/37.7JOLIET VOR/DME112.3002E

 
NDB name  Hdg/Dist  Freq  Var  ID
LAKE LAWN180/33.040402WLVV .-.. ...- ...-

Airport Services

Airframe service: NONE
Powerplant service: NONE

Runway Information

Runway 9/27

Dimensions: 2998 x 50 ft. / 914 x 15 m
Surface: asphalt, in good condition
Runway edge lights: low intensity
RUNWAY 9  RUNWAY 27
Latitude: 42-08.915933N42-08.916033N
Longitude: 088-34.048533W088-33.385117W
Elevation: 846.6 ft.855.5 ft.
Traffic pattern: rightleft
Visual slope indicator: 2-box VASI on left (3.00 degrees glide path)
Touchdown point: yes, no lightsyes, no lights

Airport Ownership and Management from official FAA records

Ownership: Privately-owned
Owner: CASA DE AERO PARK CORP.
P.O. BOX 42
HAMPSHIRE, IL 60140
Phone (847) 217-9803
Manager: BILL WASCHER
CASA DE AERO PARK CORP., PO BOX 42
HAMPSHIRE, IL 60140
Phone (847) 217-9803

Airport Operational Statistics

Aircraft based on the field: 77
Single engine airplanes: 65
Multi engine airplanes: 7
Gliders airplanes: 1
Ultralights: 4
    

Instrument Procedures

There are no published instrument procedures at 68IS.

Some nearby airports with instrument procedures:

3CK - Lake in the Hills Airport (11 nm E)
KDKB - De Kalb Taylor Municipal Airport (14 nm SW)
C77 - Poplar Grove Airport (16 nm NW)
10C - Galt Field Airport (17 nm NE)
KDPA - DuPage Airport (20 nm SE)
 
Loc | Ops | Rwys | IFR | FBO | Links
Com | Nav | Svcs | Stats | Notes

AirNav Hotels Sweepstakes
 
Area around 68IS (Casa de Aero Park Airport)
 
Road maps at: MapQuest Bing Google
 
Aerial photo
WARNING: Photo may not be current or correct
Aerial photo of 68IS (Casa de Aero Park Airport)
Photo by Kyle J Grimmonpre
Photo taken 26-Jun-2012
from 2500' MSL, looking east.

Do you have a better or more recent aerial photo of Casa de Aero Park Airport that you would like to share? If so, please send us your photo.

 
Sectional chart

 
Airport distance calculator
Flying to Casa de Aero Park Airport? Find the distance to fly.

From to 68IS

Sunrise and sunset
Times for 25-May-2018
 Local
(UTC-5)
 Zulu
(UTC)
Morning civil twilight04:5309:53
Sunrise05:2610:26
Sunset20:1701:17
Evening civil twilight20:5001:50

Current date and time
Zulu (UTC)  25-May-2018 11:19:59
Local (UTC-5)  25-May-2018 06:19:59
 
METAR
KDKB 
14nm SW 
251055Z AUTO 18006KT 10SM CLR 16/14 A2997 RMK AO2 T01600137
KDPA 
20nm SE 
251052Z 17004KT 9SM CLR 16/13 A2996 RMK AO2 SLP139 T01610128
K06C 
23nm SE 
251055Z AUTO 00000KT 10SM CLR 18/12 A2996 RMK AO2 T01800117
KARR 
23nm S 
251052Z AUTO 00000KT 10SM CLR 17/14 A2996 RMK AO2 SLP142 T01670139
KRFD 
24nm W 
251054Z 00000KT 10SM CLR 17/14 A2996 RMK AO2 SLP139 T01720139
KRPJ 
28nm SW 
251055Z AUTO 17006KT 10SM CLR 17/15 A2996 RMK AO2 T01660150
TAF
KDPA 
20nm SE 
250830Z 2509/2606 18005KT P6SM FEW250 FM251600 21011KT P6SM FEW060 BKN200 FM260100 20006KT P6SM BKN100 BKN200
KRFD 
24nm W 
250830Z 2509/2606 19006KT P6SM SCT250 FM251500 22012KT P6SM SCT060 BKN200 FM260100 21006KT P6SM BKN090 BKN200
NOTAMs
Click for the latest NOTAMs
NOTAMs are issued by the DoD/FAA and will open in a separate window not controlled by AirNav.

 

 
 

Would you like to see your business listed on this page?

 If your business provides an interesting product or service to pilots, flight crews, aircraft, or users of the Casa de Aero Park Airport, you should consider listing it here.  To start the listing process, click on the button below
 
Add a business
 

Other Pages about Casa de Aero Park Airport

Update a link
 
Copyright © AirNav, LLC. All rights reserved. Privacy Policy  Contact